sensor_id;sensor_type;location;lat;lon;timestamp;pressure;altitude;pressure_sealevel;temperature;humidity
71149;BME280;59072;42.144;25.200;2023-04-01T00:00:29;99251.03;;;10.95;73.92
71149;BME280;59072;42.144;25.200;2023-04-01T00:02:55;99262.38;;;10.85;74.18
71149;BME280;59072;42.144;25.200;2023-04-01T00:05:21;99249.34;;;10.89;74.55
71149;BME280;59072;42.144;25.200;2023-04-01T00:07:47;99245.13;;;10.93;74.07
71149;BME280;59072;42.144;25.200;2023-04-01T00:10:14;99245.53;;;10.84;74.12
71149;BME280;59072;42.144;25.200;2023-04-01T00:12:41;99233.53;;;10.70;75.23
71149;BME280;59072;42.144;25.200;2023-04-01T00:15:08;99244.03;;;10.60;75.89
71149;BME280;59072;42.144;25.200;2023-04-01T00:17:34;99226.09;;;10.55;76.03
71149;BME280;59072;42.144;25.200;2023-04-01T00:20:00;99227.78;;;10.44;77.26
71149;BME280;59072;42.144;25.200;2023-04-01T00:22:25;99231.38;;;10.38;77.01
71149;BME280;59072;42.144;25.200;2023-04-01T00:24:51;99238.31;;;10.39;77.31
71149;BME280;59072;42.144;25.200;2023-04-01T00:27:17;99240.38;;;10.49;77.27
71149;BME280;59072;42.144;25.200;2023-04-01T00:29:44;99244.53;;;10.57;76.65
71149;BME280;59072;42.144;25.200;2023-04-01T00:32:09;99238.88;;;10.70;75.72
71149;BME280;59072;42.144;25.200;2023-04-01T00:34:35;99250.88;;;10.84;75.02
71149;BME280;59072;42.144;25.200;2023-04-01T00:37:01;99267.19;;;10.71;75.23
71149;BME280;59072;42.144;25.200;2023-04-01T00:39:29;99242.22;;;10.77;74.46
71149;BME280;59072;42.144;25.200;2023-04-01T00:41:54;99259.22;;;11.05;73.52
71149;BME280;59072;42.144;25.200;2023-04-01T00:44:24;99261.22;;;11.32;71.93
71149;BME280;59072;42.144;25.200;2023-04-01T00:46:51;99262.53;;;10.95;73.85
71149;BME280;59072;42.144;25.200;2023-04-01T00:49:19;99243.13;;;10.83;73.83
71149;BME280;59072;42.144;25.200;2023-04-01T00:51:47;99254.50;;;10.78;74.13
71149;BME280;59072;42.144;25.200;2023-04-01T00:54:16;99228.38;;;10.63;74.70
71149;BME280;59072;42.144;25.200;2023-04-01T00:56:47;99238.84;;;10.53;76.10
71149;BME280;59072;42.144;25.200;2023-04-01T00:59:20;99237.91;;;10.59;75.78
71149;BME280;59072;42.144;25.200;2023-04-01T01:01:47;99245.63;;;10.73;75.23
71149;BME280;59072;42.144;25.200;2023-04-01T01:04:28;99249.53;;;10.70;75.25
71149;BME280;59072;42.144;25.200;2023-04-01T01:20:14;99251.94;;;10.55;74.30
71149;BME280;59072;42.144;25.200;2023-04-01T01:34:00;99244.34;;;10.47;74.61
71149;BME280;59072;42.144;25.200;2023-04-01T01:36:31;99251.16;;;10.54;74.11
71149;BME280;59072;42.144;25.200;2023-04-01T01:39:02;99227.94;;;10.26;75.26
71149;BME280;59072;42.144;25.200;2023-04-01T01:41:29;99249.25;;;10.26;75.94
71149;BME280;59072;42.144;25.200;2023-04-01T01:43:56;99257.78;;;10.40;73.98
71149;BME280;59072;42.144;25.200;2023-04-01T01:46:24;99268.91;;;10.49;73.62
71149;BME280;59072;42.144;25.200;2023-04-01T01:48:52;99259.00;;;10.09;75.22
71149;BME280;59072;42.144;25.200;2023-04-01T01:51:19;99223.22;;;10.04;75.02
71149;BME280;59072;42.144;25.200;2023-04-01T01:53:45;99255.31;;;10.10;75.62
71149;BME280;59072;42.144;25.200;2023-04-01T01:56:11;99256.19;;;10.27;75.32
71149;BME280;59072;42.144;25.200;2023-04-01T01:58:53;99235.53;;;10.05;77.09
71149;BME280;59072;42.144;25.200;2023-04-01T02:01:24;99198.34;;;9.35;80.24
71149;BME280;59072;42.144;25.200;2023-04-01T02:03:51;99213.09;;;9.66;80.66
71149;BME280;59072;42.144;25.200;2023-04-01T02:06:21;99237.03;;;10.01;79.32
71149;BME280;59072;42.144;25.200;2023-04-01T02:08:53;99225.53;;;9.60;80.94
71149;BME280;59072;42.144;25.200;2023-04-01T02:11:47;99229.25;;;9.36;83.52
71149;BME280;59072;42.144;25.200;2023-04-01T02:14:15;99206.75;;;9.55;81.59
71149;BME280;59072;42.144;25.200;2023-04-01T02:17:00;99225.59;;;9.89;79.61
71149;BME280;59072;42.144;25.200;2023-04-01T02:19:56;99214.31;;;9.35;82.85
71149;BME280;59072;42.144;25.200;2023-04-01T02:22:44;99202.50;;;9.19;83.95
71149;BME280;59072;42.144;25.200;2023-04-01T02:25:18;99194.25;;;8.97;84.63
71149;BME280;59072;42.144;25.200;2023-04-01T02:27:46;99208.38;;;9.09;85.07
71149;BME280;59072;42.144;25.200;2023-04-01T02:30:13;99201.09;;;9.04;84.89
71149;BME280;59072;42.144;25.200;2023-04-01T02:32:39;99206.13;;;8.71;86.75
71149;BME280;59072;42.144;25.200;2023-04-01T02:35:10;99205.38;;;8.52;87.97
71149;BME280;59072;42.144;25.200;2023-04-01T02:37:37;99212.28;;;8.41;88.04
71149;BME280;59072;42.144;25.200;2023-04-01T02:40:05;99211.53;;;8.52;88.61
71149;BME280;59072;42.144;25.200;2023-04-01T02:42:33;99206.13;;;8.82;86.58
71149;BME280;59072;42.144;25.200;2023-04-01T02:44:58;99219.66;;;8.69;86.81
71149;BME280;59072;42.144;25.200;2023-04-01T02:47:24;99227.75;;;8.74;86.67
71149;BME280;59072;42.144;25.200;2023-04-01T02:49:49;99230.28;;;8.69;86.56
71149;BME280;59072;42.144;25.200;2023-04-01T02:52:15;99226.13;;;8.73;85.96
71149;BME280;59072;42.144;25.200;2023-04-01T02:54:40;99221.06;;;8.83;85.46
71149;BME280;59072;42.144;25.200;2023-04-01T02:57:05;99224.47;;;9.14;83.08
71149;BME280;59072;42.144;25.200;2023-04-01T02:59:31;99225.28;;;9.38;81.37
71149;BME280;59072;42.144;25.200;2023-04-01T03:01:58;99214.53;;;9.45;80.33
71149;BME280;59072;42.144;25.200;2023-04-01T03:04:23;99210.59;;;9.59;79.46
71149;BME280;59072;42.144;25.200;2023-04-01T03:06:48;99216.59;;;9.08;81.84
71149;BME280;59072;42.144;25.200;2023-04-01T03:09:15;99212.63;;;8.75;85.02
71149;BME280;59072;42.144;25.200;2023-04-01T03:11:41;99214.34;;;8.69;86.79
71149;BME280;59072;42.144;25.200;2023-04-01T03:14:06;99211.31;;;9.19;83.42
71149;BME280;59072;42.144;25.200;2023-04-01T03:16:32;99207.13;;;9.35;81.61
71149;BME280;59072;42.144;25.200;2023-04-01T03:18:58;99208.19;;;9.46;80.79
71149;BME280;59072;42.144;25.200;2023-04-01T03:21:25;99207.47;;;9.39;80.14
71149;BME280;59072;42.144;25.200;2023-04-01T03:23:51;99189.97;;;8.84;83.74
71149;BME280;59072;42.144;25.200;2023-04-01T03:26:17;99187.66;;;8.88;83.77
71149;BME280;59072;42.144;25.200;2023-04-01T03:28:43;99182.31;;;8.76;84.63
71149;BME280;59072;42.144;25.200;2023-04-01T03:31:10;99179.03;;;9.28;81.82
71149;BME280;59072;42.144;25.200;2023-04-01T03:33:36;99165.50;;;9.05;82.72
71149;BME280;59072;42.144;25.200;2023-04-01T03:36:02;99167.19;;;8.76;85.02
71149;BME280;59072;42.144;25.200;2023-04-01T03:38:28;99167.56;;;8.92;84.37
71149;BME280;59072;42.144;25.200;2023-04-01T03:40:53;99166.97;;;9.13;81.93
71149;BME280;59072;42.144;25.200;2023-04-01T03:43:19;99180.63;;;9.17;81.89
71149;BME280;59072;42.144;25.200;2023-04-01T03:45:50;99170.09;;;8.75;82.09
71149;BME280;59072;42.144;25.200;2023-04-01T03:48:16;99200.63;;;8.54;83.82
71149;BME280;59072;42.144;25.200;2023-04-01T03:50:42;99201.25;;;8.37;85.13
71149;BME280;59072;42.144;25.200;2023-04-01T03:53:08;99204.50;;;8.39;83.41
71149;BME280;59072;42.144;25.200;2023-04-01T03:55:36;99184.13;;;8.33;83.67
71149;BME280;59072;42.144;25.200;2023-04-01T03:58:02;99186.78;;;8.52;82.66
71149;BME280;59072;42.144;25.200;2023-04-01T04:00:29;99182.63;;;8.44;83.02
71149;BME280;59072;42.144;25.200;2023-04-01T04:02:55;99173.97;;;8.30;84.43
71149;BME280;59072;42.144;25.200;2023-04-01T04:05:22;99176.97;;;8.64;83.18
71149;BME280;59072;42.144;25.200;2023-04-01T04:07:48;99169.28;;;8.98;80.60
71149;BME280;59072;42.144;25.200;2023-04-01T04:10:13;99170.88;;;8.75;82.13
71149;BME280;59072;42.144;25.200;2023-04-01T04:12:39;99172.91;;;8.50;83.70
71149;BME280;59072;42.144;25.200;2023-04-01T04:15:06;99179.47;;;8.89;81.19
71149;BME280;59072;42.144;25.200;2023-04-01T04:17:31;99167.09;;;8.95;81.10
71149;BME280;59072;42.144;25.200;2023-04-01T04:19:57;99167.06;;;8.71;81.82
71149;BME280;59072;42.144;25.200;2023-04-01T04:22:22;99171.13;;;8.85;81.01
71149;BME280;59072;42.144;25.200;2023-04-01T04:24:47;99160.44;;;8.62;83.05
71149;BME280;59072;42.144;25.200;2023-04-01T04:27:13;99158.31;;;8.40;84.32
71149;BME280;59072;42.144;25.200;2023-04-01T04:29:38;99153.06;;;8.64;83.51
71149;BME280;59072;42.144;25.200;2023-04-01T04:32:04;99147.31;;;8.79;82.01
71149;BME280;59072;42.144;25.200;2023-04-01T04:34:30;99144.28;;;8.63;83.23
71149;BME280;59072;42.144;25.200;2023-04-01T04:36:55;99152.50;;;8.74;83.22
71149;BME280;59072;42.144;25.200;2023-04-01T04:39:21;99156.78;;;8.63;83.13
71149;BME280;59072;42.144;25.200;2023-04-01T04:41:46;99164.66;;;8.81;83.03
71149;BME280;59072;42.144;25.200;2023-04-01T04:44:11;99154.34;;;8.73;82.86
71149;BME280;59072;42.144;25.200;2023-04-01T04:46:37;99169.63;;;8.90;82.91
71149;BME280;59072;42.144;25.200;2023-04-01T04:49:05;99176.22;;;8.75;83.72
71149;BME280;59072;42.144;25.200;2023-04-01T04:51:30;99175.03;;;8.71;84.89
71149;BME280;59072;42.144;25.200;2023-04-01T04:53:59;99165.75;;;8.62;85.83
71149;BME280;59072;42.144;25.200;2023-04-01T04:56:24;99168.31;;;8.57;86.32
71149;BME280;59072;42.144;25.200;2023-04-01T04:58:51;99163.84;;;8.93;84.33
71149;BME280;59072;42.144;25.200;2023-04-01T05:01:17;99172.19;;;9.20;82.87
71149;BME280;59072;42.144;25.200;2023-04-01T05:03:44;99174.72;;;9.50;81.37
71149;BME280;59072;42.144;25.200;2023-04-01T05:06:12;99154.50;;;9.25;83.03
71149;BME280;59072;42.144;25.200;2023-04-01T05:08:39;99181.44;;;9.29;83.50
71149;BME280;59072;42.144;25.200;2023-04-01T05:11:07;99161.34;;;9.21;84.41
71149;BME280;59072;42.144;25.200;2023-04-01T05:13:35;99175.94;;;9.83;81.21
71149;BME280;59072;42.144;25.200;2023-04-01T05:16:01;99176.81;;;10.00;80.66
71149;BME280;59072;42.144;25.200;2023-04-01T05:18:26;99180.41;;;10.23;77.78
71149;BME280;59072;42.144;25.200;2023-04-01T05:20:54;99191.66;;;10.25;78.35
71149;BME280;59072;42.144;25.200;2023-04-01T05:23:21;99181.22;;;10.35;77.74
71149;BME280;59072;42.144;25.200;2023-04-01T05:25:50;99177.31;;;10.72;77.19
71149;BME280;59072;42.144;25.200;2023-04-01T05:28:18;99166.47;;;11.12;74.45
71149;BME280;59072;42.144;25.200;2023-04-01T05:30:43;99144.72;;;11.20;74.40
71149;BME280;59072;42.144;25.200;2023-04-01T05:33:10;99141.22;;;10.81;76.76
71149;BME280;59072;42.144;25.200;2023-04-01T05:35:36;99146.28;;;10.65;77.49
71149;BME280;59072;42.144;25.200;2023-04-01T05:38:02;99143.72;;;11.26;75.41
71149;BME280;59072;42.144;25.200;2023-04-01T05:40:29;99150.81;;;11.38;73.89
71149;BME280;59072;42.144;25.200;2023-04-01T05:42:54;99144.06;;;11.52;74.27
71149;BME280;59072;42.144;25.200;2023-04-01T05:45:20;99137.13;;;11.51;74.01
71149;BME280;59072;42.144;25.200;2023-04-01T05:47:46;99132.13;;;11.38;75.67
71149;BME280;59072;42.144;25.200;2023-04-01T05:50:11;99127.84;;;11.37;74.65
71149;BME280;59072;42.144;25.200;2023-04-01T05:52:37;99136.06;;;11.30;75.02
71149;BME280;59072;42.144;25.200;2023-04-01T05:55:03;99126.88;;;11.04;76.89
71149;BME280;59072;42.144;25.200;2023-04-01T05:57:29;99126.50;;;11.17;77.41
71149;BME280;59072;42.144;25.200;2023-04-01T05:59:55;99124.81;;;11.11;78.51
71149;BME280;59072;42.144;25.200;2023-04-01T06:02:20;99121.28;;;10.89;79.60
71149;BME280;59072;42.144;25.200;2023-04-01T06:04:46;99128.97;;;11.02;79.27
71149;BME280;59072;42.144;25.200;2023-04-01T06:07:13;99113.81;;;10.85;80.32
71149;BME280;59072;42.144;25.200;2023-04-01T06:09:39;99141.91;;;11.10;79.64
71149;BME280;59072;42.144;25.200;2023-04-01T06:30:43;99073.00;;;10.68;82.95
71149;BME280;59072;42.144;25.200;2023-04-01T06:39:38;99067.53;;;10.97;84.31
71149;BME280;59072;42.144;25.200;2023-04-01T06:44:41;99064.09;;;11.18;81.81
71149;BME280;59072;42.144;25.200;2023-04-01T06:52:47;99062.84;;;11.48;81.14
71149;BME280;59072;42.144;25.200;2023-04-01T06:55:27;99063.16;;;11.30;82.32
71149;BME280;59072;42.144;25.200;2023-04-01T06:57:56;99097.75;;;11.63;81.66
71149;BME280;59072;42.144;25.200;2023-04-01T07:00:31;99074.16;;;11.55;80.81
71149;BME280;59072;42.144;25.200;2023-04-01T07:05:42;99081.88;;;11.79;79.99
71149;BME280;59072;42.144;25.200;2023-04-01T07:08:13;99084.72;;;11.89;79.95
71149;BME280;59072;42.144;25.200;2023-04-01T07:13:20;99045.22;;;11.96;77.67
71149;BME280;59072;42.144;25.200;2023-04-01T07:16:17;99045.03;;;12.35;77.24
71149;BME280;59072;42.144;25.200;2023-04-01T07:18:48;99058.72;;;12.44;76.25
71149;BME280;59072;42.144;25.200;2023-04-01T07:21:35;99030.56;;;12.31;76.20
71149;BME280;59072;42.144;25.200;2023-04-01T07:24:06;99071.03;;;12.82;74.92
71149;BME280;59072;42.144;25.200;2023-04-01T07:26:35;99061.50;;;13.44;74.60
71149;BME280;59072;42.144;25.200;2023-04-01T07:29:01;99053.84;;;13.84;72.03
71149;BME280;59072;42.144;25.200;2023-04-01T07:34:25;99007.22;;;14.00;70.42
71149;BME280;59072;42.144;25.200;2023-04-01T07:37:03;99022.22;;;14.12;70.47
71149;BME280;59072;42.144;25.200;2023-04-01T07:40:01;99009.63;;;14.48;69.02
71149;BME280;59072;42.144;25.200;2023-04-01T07:50:46;98995.94;;;14.60;66.49
71149;BME280;59072;42.144;25.200;2023-04-01T07:53:27;99000.19;;;14.86;65.84
71149;BME280;59072;42.144;25.200;2023-04-01T07:56:14;98965.38;;;14.51;66.40
71149;BME280;59072;42.144;25.200;2023-04-01T07:59:02;98996.31;;;15.18;63.87
71149;BME280;59072;42.144;25.200;2023-04-01T08:01:46;99003.25;;;15.30;63.96
71149;BME280;59072;42.144;25.200;2023-04-01T08:07:17;98979.16;;;16.62;59.95
71149;BME280;59072;42.144;25.200;2023-04-01T08:09:51;98975.69;;;16.61;59.87
71149;BME280;59072;42.144;25.200;2023-04-01T08:18:30;98962.44;;;16.65;59.28
71149;BME280;59072;42.144;25.200;2023-04-01T08:21:02;98961.06;;;16.67;57.63
71149;BME280;59072;42.144;25.200;2023-04-01T08:23:44;98932.41;;;16.29;58.53
71149;BME280;59072;42.144;25.200;2023-04-01T08:26:35;98942.31;;;16.86;56.38
71149;BME280;59072;42.144;25.200;2023-04-01T08:34:35;98945.38;;;16.99;55.45
71149;BME280;59072;42.144;25.200;2023-04-01T08:39:42;98929.88;;;17.10;54.80
71149;BME280;59072;42.144;25.200;2023-04-01T08:56:50;98902.97;;;17.47;56.55
71149;BME280;59072;42.144;25.200;2023-04-01T09:09:52;98870.84;;;17.32;57.40
71149;BME280;59072;42.144;25.200;2023-04-01T09:15:28;98848.09;;;17.57;57.37
71149;BME280;59072;42.144;25.200;2023-04-01T09:28:46;98817.75;;;18.54;54.97
71149;BME280;59072;42.144;25.200;2023-04-01T09:37:02;98814.66;;;18.19;57.76
71149;BME280;59072;42.144;25.200;2023-04-01T09:42:43;98765.31;;;18.04;58.68
71149;BME280;59072;42.144;25.200;2023-04-01T09:45:37;98770.09;;;18.07;58.35
71149;BME280;59072;42.144;25.200;2023-04-01T09:51:15;98766.66;;;18.43;58.72
71149;BME280;59072;42.144;25.200;2023-04-01T09:54:13;98776.00;;;18.74;58.12
71149;BME280;59072;42.144;25.200;2023-04-01T10:00:07;98745.16;;;18.38;58.93
71149;BME280;59072;42.144;25.200;2023-04-01T10:21:45;98708.31;;;19.38;56.61
71149;BME280;59072;42.144;25.200;2023-04-01T10:25:10;98709.94;;;19.47;56.93
71149;BME280;59072;42.144;25.200;2023-04-01T10:39:00;98670.84;;;19.54;54.49
71149;BME280;59072;42.144;25.200;2023-04-01T11:02:15;98632.91;;;23.47;41.45
71149;BME280;59072;42.144;25.200;2023-04-01T11:21:33;98541.94;;;24.54;38.75
71149;BME280;59072;42.144;25.200;2023-04-01T11:30:10;98525.09;;;24.96;35.89
71149;BME280;59072;42.144;25.200;2023-04-01T11:32:34;98509.41;;;24.93;37.00
71149;BME280;59072;42.144;25.200;2023-04-01T11:35:23;98503.28;;;24.96;39.54
71149;BME280;59072;42.144;25.200;2023-04-01T11:40:54;98485.81;;;24.09;39.23
71149;BME280;59072;42.144;25.200;2023-04-01T11:43:27;98489.63;;;24.20;38.99
71149;BME280;59072;42.144;25.200;2023-04-01T12:08:33;98453.63;;;25.96;38.03
71149;BME280;59072;42.144;25.200;2023-04-01T12:14:13;98450.44;;;26.56;35.89
71149;BME280;59072;42.144;25.200;2023-04-01T12:19:12;98445.13;;;25.82;36.82
71149;BME280;59072;42.144;25.200;2023-04-01T12:22:30;98435.34;;;24.91;39.84
71149;BME280;59072;42.144;25.200;2023-04-01T12:30:40;98412.50;;;24.47;38.69
71149;BME280;59072;42.144;25.200;2023-04-01T12:39:21;98417.13;;;22.44;47.59
71149;BME280;59072;42.144;25.200;2023-04-01T12:41:59;98398.84;;;22.66;46.58
71149;BME280;59072;42.144;25.200;2023-04-01T12:44:41;98383.06;;;22.72;47.02
71149;BME280;59072;42.144;25.200;2023-04-01T12:47:43;98372.31;;;22.87;48.46
71149;BME280;59072;42.144;25.200;2023-04-01T12:55:35;98378.63;;;22.92;48.27
71149;BME280;59072;42.144;25.200;2023-04-01T13:17:36;98345.94;;;22.26;47.78
71149;BME280;59072;42.144;25.200;2023-04-01T13:26:14;98345.69;;;23.05;46.52
71149;BME280;59072;42.144;25.200;2023-04-01T13:28:24;98338.34;;;23.62;45.57
71149;BME280;59072;42.144;25.200;2023-04-01T13:36:36;98362.75;;;21.62;48.63
71149;BME280;59072;42.144;25.200;2023-04-01T13:44:46;98350.84;;;22.00;47.82
71149;BME280;59072;42.144;25.200;2023-04-01T13:52:55;98346.00;;;21.39;50.05
71149;BME280;59072;42.144;25.200;2023-04-01T13:56:11;98376.22;;;21.07;50.60
71149;BME280;59072;42.144;25.200;2023-04-01T14:01:42;98451.19;;;19.39;54.50
71149;BME280;59072;42.144;25.200;2023-04-01T14:26:22;98528.38;;;16.92;55.61
71149;BME280;59072;42.144;25.200;2023-04-01T14:29:03;98553.47;;;16.87;57.43
71149;BME280;59072;42.144;25.200;2023-04-01T14:34:15;98541.44;;;15.81;63.71
71149;BME280;59072;42.144;25.200;2023-04-01T14:46:22;98580.88;;;14.65;74.04
71149;BME280;59072;42.144;25.200;2023-04-01T14:49:04;98583.47;;;14.71;73.32
71149;BME280;59072;42.144;25.200;2023-04-01T14:51:31;98580.53;;;14.72;74.36
71149;BME280;59072;42.144;25.200;2023-04-01T14:54:16;98588.06;;;14.70;74.47
71149;BME280;59072;42.144;25.200;2023-04-01T14:57:04;98580.44;;;14.82;77.66
71149;BME280;59072;42.144;25.200;2023-04-01T14:59:30;98557.38;;;15.54;76.09
71149;BME280;59072;42.144;25.200;2023-04-01T15:18:34;98588.72;;;17.46;60.51
71149;BME280;59072;42.144;25.200;2023-04-01T15:29:15;98594.09;;;17.88;60.48
71149;BME280;59072;42.144;25.200;2023-04-01T15:31:49;98586.28;;;18.00;57.60
71149;BME280;59072;42.144;25.200;2023-04-01T15:34:36;98560.09;;;17.09;60.25
71149;BME280;59072;42.144;25.200;2023-04-01T15:43:01;98583.06;;;16.41;62.90
71149;BME280;59072;42.144;25.200;2023-04-01T15:45:49;98584.66;;;15.85;66.23
71149;BME280;59072;42.144;25.200;2023-04-01T15:54:01;98583.44;;;15.53;66.36
71149;BME280;59072;42.144;25.200;2023-04-01T15:59:30;98584.56;;;14.99;68.94
71149;BME280;59072;42.144;25.200;2023-04-01T16:07:35;98607.50;;;15.15;68.41
71149;BME280;59072;42.144;25.200;2023-04-01T16:10:19;98611.16;;;14.95;69.05
71149;BME280;59072;42.144;25.200;2023-04-01T16:20:44;98643.16;;;14.92;69.96
71149;BME280;59072;42.144;25.200;2023-04-01T16:26:09;98637.31;;;14.84;69.80
71149;BME280;59072;42.144;25.200;2023-04-01T16:29:01;98626.91;;;14.78;69.75
71149;BME280;59072;42.144;25.200;2023-04-01T16:37:19;98648.72;;;14.71;68.15
71149;BME280;59072;42.144;25.200;2023-04-01T16:40:20;98692.69;;;14.75;68.59
71149;BME280;59072;42.144;25.200;2023-04-01T16:42:56;98686.28;;;14.71;69.67
71149;BME280;59072;42.144;25.200;2023-04-01T16:45:37;98676.59;;;14.75;69.35
71149;BME280;59072;42.144;25.200;2023-04-01T16:51:16;98683.25;;;14.78;70.24
71149;BME280;59072;42.144;25.200;2023-04-01T16:53:43;98700.72;;;15.10;69.41
71149;BME280;59072;42.144;25.200;2023-04-01T16:56:27;98714.38;;;15.13;69.20
71149;BME280;59072;42.144;25.200;2023-04-01T17:01:47;98708.06;;;14.99;68.78
71149;BME280;59072;42.144;25.200;2023-04-01T17:15:58;98718.34;;;14.86;70.43
71149;BME280;59072;42.144;25.200;2023-04-01T17:21:36;98721.81;;;14.87;70.30
71149;BME280;59072;42.144;25.200;2023-04-01T17:35:22;98713.09;;;14.71;71.05
71149;BME280;59072;42.144;25.200;2023-04-01T17:43:24;98747.53;;;14.59;79.21
71149;BME280;59072;42.144;25.200;2023-04-01T17:45:55;98716.44;;;14.42;80.54
71149;BME280;59072;42.144;25.200;2023-04-01T17:51:19;98708.38;;;14.47;82.99
71149;BME280;59072;42.144;25.200;2023-04-01T18:08:03;98771.84;;;14.07;83.91
71149;BME280;59072;42.144;25.200;2023-04-01T18:21:48;98822.88;;;13.61;83.78
71149;BME280;59072;42.144;25.200;2023-04-01T18:24:30;98832.78;;;13.45;85.20
71149;BME280;59072;42.144;25.200;2023-04-01T18:27:15;98823.66;;;13.16;86.77
71149;BME280;59072;42.144;25.200;2023-04-01T18:29:52;98810.69;;;12.77;88.59
71149;BME280;59072;42.144;25.200;2023-04-01T18:32:36;98812.38;;;12.98;85.73
71149;BME280;59072;42.144;25.200;2023-04-01T18:40:38;98800.31;;;13.01;76.03
71149;BME280;59072;42.144;25.200;2023-04-01T18:43:27;98837.28;;;13.19;72.86
71149;BME280;59072;42.144;25.200;2023-04-01T18:46:00;98818.00;;;13.17;72.91
71149;BME280;59072;42.144;25.200;2023-04-01T18:48:40;98860.34;;;13.31;72.10
71149;BME280;59072;42.144;25.200;2023-04-01T18:51:19;98870.22;;;13.25;71.65
71149;BME280;59072;42.144;25.200;2023-04-01T18:53:52;98867.53;;;13.15;72.29
71149;BME280;59072;42.144;25.200;2023-04-01T18:56:34;98867.28;;;13.16;73.60
71149;BME280;59072;42.144;25.200;2023-04-01T19:07:43;98899.06;;;12.97;69.62
71149;BME280;59072;42.144;25.200;2023-04-01T19:10:40;98890.25;;;13.02;68.37
71149;BME280;59072;42.144;25.200;2023-04-01T19:13:19;98892.91;;;12.92;67.22
71149;BME280;59072;42.144;25.200;2023-04-01T19:34:25;98903.38;;;11.98;74.88
71149;BME280;59072;42.144;25.200;2023-04-01T19:36:59;98908.06;;;12.18;74.69
71149;BME280;59072;42.144;25.200;2023-04-01T19:39:52;98882.94;;;11.86;74.00
71149;BME280;59072;42.144;25.200;2023-04-01T19:45:43;98912.09;;;12.25;73.90
71149;BME280;59072;42.144;25.200;2023-04-01T19:51:13;98913.97;;;12.25;70.87
71149;BME280;59072;42.144;25.200;2023-04-01T19:56:36;98878.72;;;11.91;69.17
71149;BME280;59072;42.144;25.200;2023-04-01T19:59:19;98907.06;;;11.92;69.59
71149;BME280;59072;42.144;25.200;2023-04-01T20:04:39;98868.13;;;11.69;68.23
71149;BME280;59072;42.144;25.200;2023-04-01T20:10:02;98896.53;;;11.80;67.90
71149;BME280;59072;42.144;25.200;2023-04-01T20:13:39;98906.28;;;11.64;68.66
71149;BME280;59072;42.144;25.200;2023-04-01T20:15:41;98912.16;;;11.66;68.33
71149;BME280;59072;42.144;25.200;2023-04-01T20:18:25;98942.63;;;11.65;68.16
71149;BME280;59072;42.144;25.200;2023-04-01T20:21:02;98915.31;;;11.31;69.96
71149;BME280;59072;42.144;25.200;2023-04-01T20:23:45;98940.56;;;11.45;68.61
71149;BME280;59072;42.144;25.200;2023-04-01T20:26:12;98929.97;;;11.28;69.29
71149;BME280;59072;42.144;25.200;2023-04-01T20:28:45;98932.53;;;11.18;68.93
71149;BME280;59072;42.144;25.200;2023-04-01T20:37:02;98926.72;;;10.99;69.96
71149;BME280;59072;42.144;25.200;2023-04-01T20:50:48;98966.72;;;10.99;68.95
71149;BME280;59072;42.144;25.200;2023-04-01T20:53:16;98969.69;;;11.02;69.12
71149;BME280;59072;42.144;25.200;2023-04-01T20:59:39;98983.16;;;10.91;69.26
71149;BME280;59072;42.144;25.200;2023-04-01T21:02:11;98966.66;;;10.72;69.76
71149;BME280;59072;42.144;25.200;2023-04-01T21:07:55;98991.97;;;10.69;69.96
71149;BME280;59072;42.144;25.200;2023-04-01T21:18:42;98988.34;;;10.41;70.32
71149;BME280;59072;42.144;25.200;2023-04-01T21:33:14;99014.66;;;10.21;70.12
71149;BME280;59072;42.144;25.200;2023-04-01T21:36:13;99021.84;;;10.20;70.96
71149;BME280;59072;42.144;25.200;2023-04-01T21:39:08;99039.97;;;10.35;70.71
71149;BME280;59072;42.144;25.200;2023-04-01T21:58:28;99054.78;;;10.14;71.80
71149;BME280;59072;42.144;25.200;2023-04-01T22:00:38;99035.16;;;10.03;71.57
71149;BME280;59072;42.144;25.200;2023-04-01T22:15:20;99056.31;;;10.27;70.90
71149;BME280;59072;42.144;25.200;2023-04-01T22:17:51;99060.19;;;10.19;71.01
71149;BME280;59072;42.144;25.200;2023-04-01T22:20:40;99065.78;;;10.18;70.60
71149;BME280;59072;42.144;25.200;2023-04-01T22:23:30;99057.22;;;10.16;70.17
71149;BME280;59072;42.144;25.200;2023-04-01T22:31:21;99056.56;;;10.25;69.47
71149;BME280;59072;42.144;25.200;2023-04-01T22:34:04;99079.34;;;10.16;70.52
71149;BME280;59072;42.144;25.200;2023-04-01T22:39:50;99082.56;;;10.18;70.62
71149;BME280;59072;42.144;25.200;2023-04-01T22:47:55;99100.22;;;10.08;70.83
71149;BME280;59072;42.144;25.200;2023-04-01T22:53:24;99095.84;;;10.30;69.48
71149;BME280;59072;42.144;25.200;2023-04-01T22:55:54;99088.16;;;10.34;69.69
71149;BME280;59072;42.144;25.200;2023-04-01T22:58:33;99097.94;;;10.28;69.83
71149;BME280;59072;42.144;25.200;2023-04-01T23:01:21;99076.25;;;10.08;71.25
71149;BME280;59072;42.144;25.200;2023-04-01T23:03:50;99066.56;;;10.01;71.43
71149;BME280;59072;42.144;25.200;2023-04-01T23:06:20;99092.25;;;10.08;72.77
71149;BME280;59072;42.144;25.200;2023-04-01T23:11:19;99117.16;;;10.01;73.26
71149;BME280;59072;42.144;25.200;2023-04-01T23:14:03;99094.44;;;9.82;73.79
71149;BME280;59072;42.144;25.200;2023-04-01T23:16:39;99099.91;;;9.75;73.66
71149;BME280;59072;42.144;25.200;2023-04-01T23:19:32;99103.59;;;9.74;74.36
71149;BME280;59072;42.144;25.200;2023-04-01T23:26:59;99109.34;;;9.54;75.66
71149;BME280;59072;42.144;25.200;2023-04-01T23:29:26;99109.78;;;9.63;75.80
71149;BME280;59072;42.144;25.200;2023-04-01T23:32:10;99089.88;;;9.54;75.10
71149;BME280;59072;42.144;25.200;2023-04-01T23:34:38;99103.97;;;9.25;76.01
71149;BME280;59072;42.144;25.200;2023-04-01T23:37:10;99107.56;;;9.19;75.98
71149;BME280;59072;42.144;25.200;2023-04-01T23:39:42;99095.03;;;9.32;74.42